Time;durP1;ratioP1;P1;durP2;ratioP2;P2;SDS_P1;SDS_P2;PMS_P1;PMS_P2;Temp;Humidity;BMP_temperature;BMP_pressure;BME280_temperature;BME280_humidity;BME280_pressure;Samples;Min_cycle;Max_cycle;Signal;HPM_P1;HPM_P2
2021/08/17 00:01:11;;;;;;;13.20;10.48;;;;;;;15.01;100.00;92684.42;1746207;80;21052;-85
2021/08/17 00:03:38;;;;;;;10.78;9.65;;;;;;;15.08;100.00;92679.30;1758177;79;21110;-84
2021/08/17 00:06:05;;;;;;;11.88;9.80;;;;;;;15.14;100.00;92683.78;1743133;79;21164;-83
2021/08/17 00:08:33;;;;;;;10.95;9.48;;;;;;;15.19;100.00;92672.25;1734106;81;21565;-85
2021/08/17 00:11:01;;;;;;;11.28;10.18;;;;;;;15.27;100.00;92674.94;1712802;82;21047;-84
2021/08/17 00:13:29;;;;;;;12.30;10.20;;;;;;;15.34;100.00;92677.27;1726696;81;21682;-85
2021/08/17 00:15:57;;;;;;;13.08;11.70;;;;;;;15.41;100.00;92675.66;1760195;79;21080;-86
2021/08/17 00:18:25;;;;;;;13.22;11.88;;;;;;;15.48;100.00;92680.28;1759540;79;21081;-84
2021/08/17 00:20:52;;;;;;;13.08;11.73;;;;;;;15.52;100.00;92682.30;1766356;79;21042;-86
2021/08/17 00:23:20;;;;;;;13.72;12.33;;;;;;;15.55;100.00;92674.56;1766035;79;21584;-85
2021/08/17 00:25:46;;;;;;;13.90;12.35;;;;;;;15.59;100.00;92677.17;1759260;79;21040;-86
2021/08/17 00:28:14;;;;;;;16.32;12.37;;;;;;;15.63;100.00;92670.97;1755845;80;21101;-86
2021/08/17 00:30:42;;;;;;;14.70;12.37;;;;;;;15.66;100.00;92675.59;1707358;82;21007;-85
2021/08/17 00:33:09;;;;;;;16.48;12.33;;;;;;;15.69;100.00;92662.98;1765012;80;21017;-86
2021/08/17 00:35:36;;;;;;;15.85;12.75;;;;;;;15.70;100.00;92663.89;1766842;80;21088;-85
2021/08/17 00:38:04;;;;;;;13.75;11.95;;;;;;;15.73;100.00;92672.61;1765468;79;21080;-85
2021/08/17 00:40:32;;;;;;;13.68;12.23;;;;;;;15.75;100.00;92669.41;1762657;80;21038;-86
2021/08/17 00:43:08;;;;;;;14.53;11.90;;;;;;;15.73;100.00;92671.84;1727418;82;21002;-85
2021/08/17 00:45:35;;;;;;;13.62;12.20;;;;;;;15.72;100.00;92666.97;1739721;80;21127;-85
2021/08/17 00:48:02;;;;;;;14.90;11.30;;;;;;;15.75;100.00;92662.55;1737667;80;21084;-85
2021/08/17 00:50:31;;;;;;;15.65;11.73;;;;;;;15.75;99.87;92665.30;1730627;81;21076;-86
2021/08/17 00:52:57;;;;;;;26.90;13.62;;;;;;;15.76;99.87;92670.34;1760194;79;21102;-85
2021/08/17 00:55:26;;;;;;;14.98;11.60;;;;;;;15.77;99.70;92662.88;1746429;80;21826;-87
2021/08/17 00:57:52;;;;;;;20.35;12.68;;;;;;;15.78;99.28;92652.83;1739115;80;21068;-85
2021/08/17 01:00:19;;;;;;;11.90;10.72;;;;;;;15.74;98.62;92665.14;1723472;80;21097;-86
2021/08/17 01:02:46;;;;;;;14.65;10.18;;;;;;;15.63;98.17;92655.89;1716380;81;21939;-87
2021/08/17 01:05:13;;;;;;;12.60;9.18;;;;;;;15.53;98.60;92661.92;1723866;80;21096;-86
2021/08/17 01:07:40;;;;;;;10.08;8.85;;;;;;;15.46;98.88;92659.43;1742029;80;21115;-85
2021/08/17 01:10:07;;;;;;;10.15;8.90;;;;;;;15.41;99.12;92660.59;1719185;80;21191;-86
2021/08/17 01:12:40;;;;;;;12.15;10.80;;;;;;;15.36;99.33;92659.19;1715167;81;21061;-87
2021/08/17 01:15:08;;;;;;;14.53;11.38;;;;;;;15.34;99.43;92649.87;1714532;80;21089;-86
2021/08/17 01:17:36;;;;;;;12.85;11.25;;;;;;;15.31;99.40;92655.65;1717259;81;21673;-87
2021/08/17 01:20:03;;;;;;;13.22;10.88;;;;;;;15.30;99.39;92652.73;1714456;81;21085;-86
2021/08/17 01:22:30;;;;;;;12.85;10.13;;;;;;;15.29;99.50;92648.47;1710953;81;21628;-85
2021/08/17 01:24:56;;;;;;;13.95;10.53;;;;;;;15.28;99.45;92654.55;1712840;81;21065;-85
2021/08/17 01:27:23;;;;;;;13.88;10.65;;;;;;;15.28;99.37;92653.80;1735234;80;21069;-84
2021/08/17 01:29:50;;;;;;;14.13;10.65;;;;;;;15.25;99.37;92659.54;1735300;79;21065;-85
2021/08/17 01:32:18;;;;;;;13.05;11.20;;;;;;;15.24;99.29;92658.63;1735654;82;21606;-85
2021/08/17 01:34:44;;;;;;;11.38;10.28;;;;;;;15.23;99.42;92654.34;1698527;83;21111;-85
2021/08/17 01:37:12;;;;;;;16.75;11.10;;;;;;;15.23;99.45;92658.45;1739485;80;21121;-85
2021/08/17 01:39:39;;;;;;;15.80;12.10;;;;;;;15.23;99.62;92652.97;1754169;80;21079;-82
2021/08/17 01:42:06;;;;;;;10.65;9.65;;;;;;;15.24;99.65;92662.13;1740780;81;21531;-83
2021/08/17 01:44:32;;;;;;;14.68;11.15;;;;;;;15.23;99.56;92666.66;1731441;80;21127;-82
2021/08/17 01:46:59;;;;;;;12.98;11.48;;;;;;;15.21;99.51;92660.87;1758542;79;21018;-85
2021/08/17 01:49:26;;;;;;;11.43;10.32;;;;;;;15.20;99.43;92661.48;1799304;77;21431;-86
2021/08/17 01:51:52;;;;;;;15.48;11.18;;;;;;;15.18;99.18;92668.60;1740504;79;21135;-86
2021/08/17 01:54:18;;;;;;;11.33;10.23;;;;;;;15.18;99.18;92667.23;1734970;80;21536;-86
2021/08/17 01:56:45;;;;;;;14.43;11.15;;;;;;;15.20;99.05;92665.59;1737952;80;21120;-85
2021/08/17 01:59:13;;;;;;;12.03;10.88;;;;;;;15.20;98.98;92660.11;1714278;82;21118;-85
2021/08/17 02:01:42;;;;;;;12.15;10.88;;;;;;;15.24;98.59;92664.87;1769325;79;21026;-84
2021/08/17 02:04:10;;;;;;;13.20;10.63;;;;;;;15.24;98.23;92664.11;1747006;80;21032;-85
2021/08/17 02:06:37;;;;;;;13.90;9.73;;;;;;;15.22;98.19;92666.51;1742165;80;21996;-84
2021/08/17 02:09:03;;;;;;;11.40;9.35;;;;;;;15.21;98.11;92667.11;1731481;80;21146;-85
2021/08/17 02:11:29;;;;;;;12.75;11.53;;;;;;;15.19;97.92;92659.17;1734449;80;21248;-85
2021/08/17 02:13:57;;;;;;;12.33;11.05;;;;;;;15.15;97.93;92654.42;1719606;82;21117;-86
2021/08/17 02:16:25;;;;;;;11.20;10.13;;;;;;;15.09;98.01;92654.84;1711953;82;21022;-85
2021/08/17 02:18:53;;;;;;;10.95;9.85;;;;;;;15.00;98.16;92651.39;1735228;80;21080;-85
2021/08/17 02:21:21;;;;;;;12.07;9.93;;;;;;;14.93;98.55;92661.20;1737475;80;21193;-84
2021/08/17 02:23:48;;;;;;;11.85;9.40;;;;;;;14.90;98.78;92661.50;1716038;80;21077;-83
2021/08/17 02:26:14;;;;;;;12.35;10.40;;;;;;;14.88;99.14;92659.78;1740429;80;21107;-84
2021/08/17 02:28:42;;;;;;;10.88;9.28;;;;;;;14.89;99.57;92649.60;1696891;83;21139;-82
2021/08/17 02:31:09;;;;;;;11.83;9.88;;;;;;;14.91;99.62;92643.09;1732752;80;21102;-84
2021/08/17 02:33:36;;;;;;;11.63;9.98;;;;;;;14.93;99.54;92646.94;1731027;80;21551;-85
2021/08/17 02:36:03;;;;;;;10.70;9.60;;;;;;;14.94;99.56;92640.85;1728995;79;21094;-84
2021/08/17 02:38:31;;;;;;;12.58;9.65;;;;;;;14.95;99.68;92642.38;1735894;80;21596;-83
2021/08/17 02:40:58;;;;;;;11.10;9.30;;;;;;;14.96;99.28;92634.31;1735498;80;21633;-83
2021/08/17 02:43:26;;;;;;;10.98;9.88;;;;;;;14.95;98.99;92644.50;1736070;80;21001;-85
2021/08/17 02:45:53;;;;;;;10.00;8.75;;;;;;;14.96;98.81;92635.69;1735741;80;21969;-84
2021/08/17 02:48:19;;;;;;;13.93;10.05;;;;;;;14.96;98.98;92647.40;1732847;80;21040;-84
2021/08/17 02:50:46;;;;;;;13.68;9.35;;;;;;;14.97;98.86;92646.21;1734036;80;21631;-83
2021/08/17 02:53:15;;;;;;;11.68;9.30;;;;;;;14.96;98.83;92637.05;1740931;82;21050;-84
2021/08/17 02:55:41;;;;;;;13.78;10.00;;;;;;;14.97;98.73;92634.47;1740749;80;21077;-85
2021/08/17 02:58:09;;;;;;;10.20;9.05;;;;;;;14.95;98.47;92651.34;1735084;80;21742;-85
2021/08/17 03:00:37;;;;;;;17.02;9.70;;;;;;;14.95;98.38;92648.61;1745024;79;21030;-84
2021/08/17 03:03:04;;;;;;;10.38;9.48;;;;;;;14.96;98.39;92641.92;1750619;79;21071;-85
2021/08/17 03:05:31;;;;;;;12.85;9.28;;;;;;;14.97;98.38;92636.63;1709676;82;21141;-84
2021/08/17 03:08:02;;;;;;;10.80;8.20;;;;;;;14.98;98.36;92629.94;1711895;81;21097;-84
2021/08/17 03:10:29;;;;;;;10.03;7.80;;;;;;;15.00;98.26;92626.75;1679541;83;21131;-83
2021/08/17 03:12:57;;;;;;;8.43;7.45;;;;;;;14.94;98.27;92629.30;1681017;84;21074;-84
2021/08/17 03:15:24;;;;;;;7.60;6.80;;;;;;;14.83;98.61;92640.44;1689736;82;21127;-84
2021/08/17 03:17:52;;;;;;;10.13;7.17;;;;;;;14.69;99.20;92632.83;1730077;81;21071;-83
2021/08/17 03:20:19;;;;;;;8.83;7.37;;;;;;;14.57;99.76;92631.64;1743261;81;21527;-84
2021/08/17 03:22:45;;;;;;;9.65;7.83;;;;;;;14.53;100.00;92638.44;1785287;79;21096;-83
2021/08/17 03:25:13;;;;;;;14.35;10.80;;;;;;;14.54;100.00;92633.89;1770015;78;21040;-83
2021/08/17 03:27:40;;;;;;;11.95;10.65;;;;;;;14.56;100.00;92638.33;1799612;77;21072;-84
2021/08/17 03:30:13;;;;;;;12.10;10.80;;;;;;;14.60;100.00;92639.59;1796776;77;21048;-84
2021/08/17 03:32:40;;;;;;;15.65;10.40;;;;;;;14.63;100.00;92632.45;1766297;79;21170;-84
2021/08/17 03:35:08;;;;;;;11.08;9.03;;;;;;;14.69;99.91;92636.17;1744204;81;21124;-85
2021/08/17 03:37:34;;;;;;;10.98;8.90;;;;;;;14.73;99.70;92636.83;1742708;81;21080;-84
2021/08/17 03:40:01;;;;;;;11.55;8.93;;;;;;;14.76;99.58;92636.71;1774102;77;21029;-84
2021/08/17 03:42:29;;;;;;;9.85;8.78;;;;;;;14.78;99.23;92635.68;1807839;77;21097;-84
2021/08/17 03:44:57;;;;;;;11.53;9.15;;;;;;;14.80;99.22;92632.49;1801649;77;21601;-85
2021/08/17 03:47:25;;;;;;;12.40;10.28;;;;;;;14.80;98.91;92631.89;1803422;77;21044;-84
2021/08/17 03:49:52;;;;;;;11.85;10.25;;;;;;;14.80;98.58;92629.15;1804716;77;21100;-85
2021/08/17 03:52:19;;;;;;;9.98;8.93;;;;;;;14.77;98.56;92627.28;1804363;77;21044;-85
2021/08/17 03:54:46;;;;;;;12.45;9.93;;;;;;;14.78;98.11;92627.47;1805017;77;21508;-86
2021/08/17 03:57:12;;;;;;;11.60;10.40;;;;;;;14.77;97.97;92630.02;1806798;77;21115;-84
2021/08/17 03:59:40;;;;;;;10.32;9.28;;;;;;;14.76;98.02;92631.23;1801666;77;21065;-81
2021/08/17 04:02:08;;;;;;;10.88;9.25;;;;;;;14.76;98.20;92631.23;1804316;77;21207;-85
2021/08/17 04:04:35;;;;;;;10.50;9.40;;;;;;;14.78;98.34;92627.47;1803554;77;21130;-85
2021/08/17 04:07:02;;;;;;;9.70;8.80;;;;;;;14.81;98.30;92633.41;1757411;80;21210;-85
2021/08/17 04:09:28;;;;;;;12.55;9.85;;;;;;;14.84;98.37;92617.33;1763935;79;21614;-85
2021/08/17 04:11:55;;;;;;;12.25;9.83;;;;;;;14.87;98.30;92622.69;1761222;79;21834;-84
2021/08/17 04:14:21;;;;;;;12.65;10.20;;;;;;;14.89;98.24;92624.36;1798465;77;21065;-85
2021/08/17 04:16:47;;;;;;;12.90;10.08;;;;;;;14.91;98.44;92622.57;1777680;77;21044;-83
2021/08/17 04:19:14;;;;;;;10.18;8.88;;;;;;;14.93;98.59;92621.51;1785459;77;21509;-84
2021/08/17 04:21:42;;;;;;;10.13;9.10;;;;;;;14.95;98.40;92622.61;1787009;77;21073;-83
2021/08/17 04:24:08;;;;;;;12.15;9.25;;;;;;;14.99;97.88;92623.86;1765173;79;21661;-84
2021/08/17 04:26:35;;;;;;;12.70;9.53;;;;;;;15.03;97.08;92622.52;1751268;80;21063;-85
2021/08/17 04:29:02;;;;;;;10.48;9.45;;;;;;;15.10;97.12;92629.74;1797610;77;21618;-85
2021/08/17 04:31:29;;;;;;;12.33;11.12;;;;;;;15.17;97.09;92642.44;1743242;78;21111;-84
2021/08/17 04:33:55;;;;;;;16.25;14.20;;;;;;;15.22;97.22;92651.45;1742560;80;21535;-85
2021/08/17 04:36:22;;;;;;;18.55;14.98;;;;;;;15.26;96.56;92650.72;1727568;78;21635;-85
2021/08/17 04:38:49;;;;;;;18.30;12.75;;;;;;;15.31;96.21;92647.44;1737643;80;21078;-84
2021/08/17 04:41:15;;;;;;;16.25;11.93;;;;;;;15.37;96.11;92660.70;1765831;79;21200;-85
2021/08/17 04:43:44;;;;;;;12.40;11.10;;;;;;;15.40;95.58;92650.23;1803868;77;21041;-86
2021/08/17 04:46:10;;;;;;;12.55;11.20;;;;;;;15.46;95.87;92655.93;1805783;77;21041;-84
2021/08/17 04:48:37;;;;;;;13.43;12.13;;;;;;;15.51;94.88;92655.35;1808524;77;21529;-84
2021/08/17 04:51:04;;;;;;;13.95;12.47;;;;;;;15.57;95.95;92666.49;1804377;77;21057;-84
2021/08/17 04:53:30;;;;;;;13.90;11.22;;;;;;;15.63;96.65;92667.47;1793316;77;21106;-85
2021/08/17 04:55:57;;;;;;;12.07;10.25;;;;;;;15.67;96.52;92664.02;1803894;77;21221;-85
2021/08/17 04:58:23;;;;;;;14.35;11.05;;;;;;;15.75;95.84;92665.30;1798364;77;21307;-85
2021/08/17 05:00:50;;;;;;;11.28;10.03;;;;;;;15.92;96.28;92666.64;1800608;77;21783;-84
2021/08/17 05:03:18;;;;;;;12.90;10.65;;;;;;;16.18;96.51;92657.66;1799619;77;21085;-84
2021/08/17 05:05:45;;;;;;;20.60;11.48;;;;;;;16.48;95.94;92666.34;1804750;77;21113;-85
2021/08/17 05:08:11;;;;;;;12.50;11.08;;;;;;;16.77;94.20;92656.41;1803919;77;21540;-85
2021/08/17 05:10:38;;;;;;;13.45;11.73;;;;;;;17.09;93.53;92670.84;1803703;77;21063;-86
2021/08/17 05:13:06;;;;;;;15.38;11.88;;;;;;;17.40;93.26;92666.00;1801404;77;21069;-87
2021/08/17 05:15:33;;;;;;;12.93;11.05;;;;;;;17.64;91.79;92664.02;1790878;77;21049;-86
2021/08/17 05:18:02;;;;;;;10.28;9.20;;;;;;;17.88;89.04;92651.84;1764101;79;21037;-85
2021/08/17 05:20:29;;;;;;;16.50;11.33;;;;;;;18.06;88.25;92655.95;1774591;79;20987;-85
2021/08/17 05:22:57;;;;;;;13.30;9.85;;;;;;;18.25;87.71;92653.92;1751674;79;21029;-86
2021/08/17 05:25:23;;;;;;;9.58;8.68;;;;;;;18.37;84.90;92635.07;1764747;79;21446;-86
2021/08/17 05:27:53;;;;;;;9.98;8.28;;;;;;;18.58;85.79;92648.47;1781076;78;21037;-86
2021/08/17 05:30:20;;;;;;;8.13;7.20;;;;;;;18.95;85.90;92638.67;1735576;80;21616;-84
2021/08/17 05:32:49;;;;;;;9.75;7.22;;;;;;;19.51;85.05;92655.02;1759440;79;21111;-84
2021/08/17 05:35:17;;;;;;;7.72;6.28;;;;;;;20.04;79.94;92657.06;1774080;77;21654;-86
2021/08/17 05:37:44;;;;;;;7.37;6.67;;;;;;;20.54;78.73;92666.14;1777682;77;21116;-86
2021/08/17 05:40:13;;;;;;;9.55;7.30;;;;;;;21.14;77.88;92661.25;1780238;77;21060;-86
2021/08/17 05:42:41;;;;;;;7.50;6.75;;;;;;;21.75;72.06;92651.03;1735284;79;20982;-83
2021/08/17 05:45:09;;;;;;;8.55;7.15;;;;;;;22.28;70.82;92652.63;1793244;77;21108;-86
2021/08/17 05:47:45;;;;;;;19.00;10.45;;;;;;;22.57;66.51;92641.20;1736002;77;21070;-86
2021/08/17 05:50:14;;;;;;;11.90;8.83;;;;;;;22.57;67.84;92645.35;1750011;80;21028;-85
2021/08/17 05:52:40;;;;;;;10.23;9.20;;;;;;;22.39;67.52;92657.52;1736085;80;21054;-83
2021/08/17 05:55:08;;;;;;;12.03;9.33;;;;;;;22.14;67.02;92655.50;1740823;80;21080;-85
2021/08/17 05:57:37;;;;;;;10.75;9.58;;;;;;;21.90;67.54;92655.11;1730435;79;21093;-83
2021/08/17 06:00:05;;;;;;;11.97;10.10;;;;;;;21.70;68.10;92649.57;1796275;77;21075;-84
2021/08/17 06:02:33;;;;;;;18.52;11.33;;;;;;;21.49;68.77;92646.06;1765575;77;21406;-85
2021/08/17 06:05:00;;;;;;;16.25;11.93;;;;;;;21.28;70.08;92650.15;1764078;79;21017;-83
2021/08/17 06:07:26;;;;;;;17.10;12.40;;;;;;;21.09;71.38;92648.88;1754767;79;21123;-85
2021/08/17 06:09:53;;;;;;;15.55;10.78;;;;;;;20.93;73.14;92655.69;1743831;79;22153;-83
2021/08/17 06:12:19;;;;;;;16.80;11.10;;;;;;;20.77;74.27;92652.06;1784303;78;21042;-83
2021/08/17 06:14:46;;;;;;;11.65;9.43;;;;;;;20.64;75.28;92652.34;1793593;77;21635;-85
2021/08/17 06:17:14;;;;;;;9.35;8.45;;;;;;;20.53;75.45;92648.78;1775219;77;21048;-84
2021/08/17 06:19:40;;;;;;;12.10;8.65;;;;;;;20.45;75.19;92653.77;1767453;79;21022;-85
2021/08/17 06:22:07;;;;;;;10.25;8.35;;;;;;;20.38;75.44;92648.78;1729125;79;21139;-86
2021/08/17 06:24:33;;;;;;;10.20;9.20;;;;;;;20.34;75.93;92651.57;1798331;77;21077;-84
2021/08/17 06:26:59;;;;;;;12.82;9.40;;;;;;;20.31;76.68;92657.45;1767077;77;21118;-85
2021/08/17 06:29:25;;;;;;;11.15;9.95;;;;;;;20.31;76.92;92658.04;1766125;79;21145;-83
2021/08/17 06:31:54;;;;;;;15.78;11.18;;;;;;;20.27;76.59;92652.73;1764958;79;21045;-83
2021/08/17 06:34:20;;;;;;;12.23;10.08;;;;;;;20.28;78.45;92661.15;1772153;79;21059;-84
2021/08/17 06:36:46;;;;;;;9.40;8.30;;;;;;;20.39;81.51;92661.97;1762744;79;21070;-84
2021/08/17 06:39:13;;;;;;;8.95;7.67;;;;;;;20.46;83.12;92653.90;1805240;77;22187;-85
2021/08/17 06:41:40;;;;;;;9.90;7.92;;;;;;;20.45;83.20;92657.91;1801452;77;21052;-85
2021/08/17 06:44:06;;;;;;;8.43;7.30;;;;;;;20.48;83.61;92650.05;1804290;77;21081;-86
2021/08/17 06:46:33;;;;;;;10.90;7.70;;;;;;;20.57;82.65;92653.52;1798932;77;21000;-86
2021/08/17 06:48:59;;;;;;;8.70;7.90;;;;;;;20.68;82.32;92634.20;1803185;77;21052;-85
2021/08/17 06:51:26;;;;;;;12.90;8.30;;;;;;;20.79;84.11;92639.89;1803997;77;22255;-82
2021/08/17 06:53:54;;;;;;;16.60;11.53;;;;;;;20.86;83.45;92638.87;1805176;77;21060;-83
2021/08/17 06:56:24;;;;;;;18.57;11.78;;;;;;;20.93;82.74;92634.21;1804125;77;21508;-86
2021/08/17 06:58:51;;;;;;;15.63;12.93;;;;;;;20.97;82.30;92637.53;1802675;77;21064;-86
2021/08/17 07:01:17;;;;;;;15.28;12.07;;;;;;;20.96;81.37;92640.16;1807233;77;21187;-86
2021/08/17 07:03:43;;;;;;;16.42;11.50;;;;;;;20.91;81.18;92647.73;1800319;77;21447;-84
2021/08/17 07:06:10;;;;;;;10.93;9.80;;;;;;;20.89;81.10;92644.08;1799813;77;21415;-83
2021/08/17 07:08:39;;;;;;;10.45;9.25;;;;;;;20.90;81.07;92643.45;1806613;77;21076;-84
2021/08/17 07:11:08;;;;;;;11.22;9.30;;;;;;;20.92;80.54;92642.37;1803094;77;21116;-85
2021/08/17 07:13:36;;;;;;;9.65;8.68;;;;;;;20.96;79.99;92638.16;1806394;76;21080;-85
2021/08/17 07:16:04;;;;;;;14.07;9.50;;;;;;;20.99;79.30;92636.44;1808588;76;21096;-85
2021/08/17 07:18:34;;;;;;;9.75;8.75;;;;;;;21.04;79.33;92634.38;1804433;77;21458;-83
2021/08/17 07:21:01;;;;;;;11.28;8.90;;;;;;;21.07;79.04;92632.79;1769886;77;21041;-85
2021/08/17 07:23:29;;;;;;;10.15;9.15;;;;;;;21.14;80.36;92628.08;1723455;80;21045;-84
2021/08/17 07:25:57;;;;;;;10.03;9.03;;;;;;;21.19;80.70;92624.02;1720926;80;21044;-85
2021/08/17 07:28:23;;;;;;;10.35;9.35;;;;;;;21.23;80.38;92632.88;1764788;79;21577;-85
2021/08/17 07:30:51;;;;;;;10.23;8.73;;;;;;;21.26;80.77;92625.00;1730697;81;21061;-84
2021/08/17 07:33:23;;;;;;;10.32;9.23;;;;;;;21.31;80.54;92629.08;1803064;77;21087;-84
2021/08/17 07:35:50;;;;;;;12.73;9.63;;;;;;;21.33;80.10;92631.53;1751544;79;21072;-87
2021/08/17 07:38:17;;;;;;;10.65;9.50;;;;;;;21.33;80.39;92633.55;1771135;77;21096;-85
2021/08/17 07:40:47;;;;;;;10.18;9.18;;;;;;;21.29;80.23;92630.95;1779118;78;21678;-85
2021/08/17 07:43:14;;;;;;;10.45;8.93;;;;;;;21.26;79.65;92636.06;1789372;77;21794;-84
2021/08/17 07:45:40;;;;;;;10.15;8.68;;;;;;;21.25;79.50;92642.84;1777321;77;21061;-85
2021/08/17 07:48:07;;;;;;;11.70;9.53;;;;;;;21.25;79.56;92643.44;1767032;77;21101;-84
2021/08/17 07:50:38;;;;;;;10.93;8.95;;;;;;;21.24;79.39;92647.45;1724476;80;21046;-84
2021/08/17 07:53:02;;;;;;;13.00;9.85;;;;;;;21.23;79.61;92643.93;1739608;80;22166;-85
2021/08/17 07:55:30;;;;;;;11.55;9.30;;;;;;;21.27;79.53;92643.10;1759895;79;21033;-83
2021/08/17 07:57:58;;;;;;;10.15;8.80;;;;;;;21.31;79.51;92637.38;1806118;77;21143;-83
2021/08/17 08:00:25;;;;;;;10.55;9.18;;;;;;;21.32;78.85;92640.27;1740610;80;21552;-85
2021/08/17 08:02:51;;;;;;;10.53;9.15;;;;;;;21.33;78.98;92639.08;1770560;78;21510;-85
2021/08/17 08:05:18;;;;;;;14.07;9.53;;;;;;;21.34;78.18;92632.30;1766586;78;21202;-86
2021/08/17 08:07:45;;;;;;;14.73;10.43;;;;;;;21.34;78.01;92639.20;1732234;79;21125;-86
2021/08/17 08:10:12;;;;;;;11.43;9.88;;;;;;;21.36;78.92;92631.17;1715969;81;21084;-86
2021/08/17 08:12:39;;;;;;;10.00;8.85;;;;;;;21.37;79.81;92636.86;1797538;77;21057;-86
2021/08/17 08:15:06;;;;;;;13.70;9.60;;;;;;;21.43;80.31;92632.77;1802417;77;21048;-86
2021/08/17 08:17:32;;;;;;;10.78;9.73;;;;;;;21.49;80.62;92633.61;1805638;77;21115;-84
2021/08/17 08:19:59;;;;;;;12.60;10.10;;;;;;;21.58;81.21;92641.14;1803079;77;21741;-86
2021/08/17 08:22:25;;;;;;;11.48;9.90;;;;;;;21.70;80.58;92644.03;1801889;77;21014;-85
2021/08/17 08:24:51;;;;;;;11.57;10.15;;;;;;;21.83;80.30;92642.44;1762291;79;21077;-86
2021/08/17 08:27:18;;;;;;;12.70;10.00;;;;;;;22.00;79.95;92641.86;1744273;79;21061;-85
2021/08/17 08:29:44;;;;;;;11.20;9.43;;;;;;;22.18;79.09;92635.28;1775688;77;21112;-86
2021/08/17 08:32:11;;;;;;;10.00;9.00;;;;;;;22.34;76.32;92622.23;1804817;77;21150;-85
2021/08/17 08:34:38;;;;;;;11.50;10.28;;;;;;;22.46;75.51;92623.85;1783167;78;21049;-85
2021/08/17 08:37:06;;;;;;;11.33;10.13;;;;;;;22.58;76.20;92625.33;1766096;79;21125;-85
2021/08/17 08:39:37;;;;;;;11.75;9.23;;;;;;;22.64;74.25;92618.59;1776859;79;21069;-85
2021/08/17 08:42:04;;;;;;;13.40;8.68;;;;;;;22.69;74.66;92622.02;1747356;80;21673;-83
2021/08/17 08:44:31;;;;;;;14.93;9.03;;;;;;;22.73;73.00;92621.17;1762588;79;21561;-84
2021/08/17 08:46:57;;;;;;;12.20;9.23;;;;;;;22.78;74.76;92630.77;1760073;79;21504;-83
2021/08/17 08:49:25;;;;;;;16.87;10.28;;;;;;;22.79;73.76;92630.89;1759372;80;21064;-86
2021/08/17 08:51:52;;;;;;;13.38;10.95;;;;;;;22.78;73.32;92637.70;1801643;77;22170;-85
2021/08/17 08:54:18;;;;;;;11.22;10.00;;;;;;;22.78;72.52;92634.92;1769464;77;21816;-84
2021/08/17 08:56:45;;;;;;;14.55;11.25;;;;;;;22.76;71.78;92627.12;1751444;79;21666;-86
2021/08/17 08:59:13;;;;;;;13.35;10.93;;;;;;;22.79;72.71;92626.73;1758912;77;21343;-85
2021/08/17 09:01:39;;;;;;;11.78;10.60;;;;;;;22.86;72.34;92632.47;1805079;77;21029;-85
2021/08/17 09:04:07;;;;;;;12.65;10.43;;;;;;;22.90;70.64;92628.20;1796643;77;21092;-84
2021/08/17 09:06:33;;;;;;;14.78;9.85;;;;;;;22.95;71.09;92630.94;1801829;79;21730;-85
2021/08/17 09:09:11;;;;;;;11.45;9.55;;;;;;;22.97;70.64;92637.48;1801723;77;21316;-85
2021/08/17 09:11:42;;;;;;;12.58;9.83;;;;;;;22.99;71.14;92634.99;1764528;79;21096;-83
2021/08/17 09:14:32;;;;;;;14.18;10.55;;;;;;;23.01;70.22;92635.24;1764384;79;20981;-84
2021/08/17 09:17:05;;;;;;;10.00;8.88;;;;;;;23.07;71.26;92630.37;1725928;82;21343;-84
2021/08/17 09:22:19;;;;;;;11.10;9.38;;;;;;;23.26;71.71;92632.89;1765213;79;21043;-85
2021/08/17 09:24:52;;;;;;;10.55;7.55;;;;;;;23.44;71.41;92629.71;1737506;79;21547;-85
2021/08/17 09:27:21;;;;;;;8.80;7.62;;;;;;;23.61;64.54;92630.41;1762199;79;21018;-84
2021/08/17 09:29:53;;;;;;;12.85;7.20;;;;;;;23.85;65.24;92625.88;1777955;77;21061;-86
2021/08/17 09:32:27;;;;;;;9.30;7.30;;;;;;;24.06;65.42;92632.74;1785760;78;21163;-84
2021/08/17 09:34:58;;;;;;;10.38;6.87;;;;;;;24.30;57.67;92629.53;1808630;77;21107;-85
2021/08/17 09:37:30;;;;;;;8.40;6.37;;;;;;;24.64;57.24;92630.98;1765050;79;21100;-84
2021/08/17 09:39:58;;;;;;;8.00;5.95;;;;;;;24.93;48.66;92626.28;1763756;79;21634;-86
2021/08/17 09:42:31;;;;;;;7.60;5.28;;;;;;;25.33;45.50;92642.97;1730190;80;21119;-87
2021/08/17 09:45:17;;;;;;;6.80;6.10;;;;;;;25.66;45.65;92649.84;1766968;79;21161;-87
2021/08/17 09:47:55;;;;;;;6.83;5.83;;;;;;;25.86;45.60;92646.63;1738896;80;21061;-85
2021/08/17 09:50:30;;;;;;;7.03;5.92;;;;;;;25.92;45.31;92647.38;1754085;79;21810;-88
2021/08/17 09:53:18;;;;;;;8.08;5.20;;;;;;;25.95;45.57;92649.75;1757368;79;21117;-87
2021/08/17 09:55:49;;;;;;;9.25;5.22;;;;;;;25.99;41.93;92651.02;1752065;79;21349;-87
2021/08/17 09:58:34;;;;;;;6.58;5.87;;;;;;;25.99;44.04;92648.84;1725409;81;22186;-86
2021/08/17 10:01:09;;;;;;;6.72;4.72;;;;;;;25.87;44.36;92653.07;1768397;79;21065;-86
2021/08/17 10:03:36;;;;;;;7.33;5.12;;;;;;;25.73;44.05;92664.51;1743802;79;21077;-83
2021/08/17 10:06:04;;;;;;;7.28;5.87;;;;;;;25.63;45.23;92661.23;1749331;79;21069;-86
2021/08/17 10:08:34;;;;;;;6.90;5.45;;;;;;;25.51;44.26;92660.52;1777449;78;21127;-85
2021/08/17 10:11:03;;;;;;;7.97;5.37;;;;;;;25.40;45.49;92668.25;1777469;77;21065;-83
2021/08/17 10:13:31;;;;;;;5.37;4.87;;;;;;;25.33;44.86;92674.33;1771461;78;21157;-86
2021/08/17 10:15:59;;;;;;;7.60;5.55;;;;;;;25.35;46.24;92680.77;1747473;79;21149;-85
2021/08/17 10:18:31;;;;;;;5.90;5.33;;;;;;;25.42;46.65;92675.44;1765961;79;21650;-85
2021/08/17 10:21:01;;;;;;;6.65;5.65;;;;;;;25.52;46.11;92689.09;1758876;78;21722;-85
2021/08/17 10:23:29;;;;;;;6.87;5.42;;;;;;;25.60;47.08;92679.70;1773881;78;21450;-86
2021/08/17 10:25:58;;;;;;;6.40;5.80;;;;;;;25.66;46.87;92684.64;1758913;79;21082;-86
2021/08/17 10:28:40;;;;;;;7.17;5.28;;;;;;;25.73;46.61;92690.95;1746098;79;21346;-82
2021/08/17 10:31:18;;;;;;;7.80;6.00;;;;;;;25.73;45.95;92709.05;1764627;79;21547;-84
2021/08/17 10:33:49;;;;;;;10.20;6.97;;;;;;;25.60;46.32;92720.70;1769289;78;21079;-84
2021/08/17 10:36:32;;;;;;;7.65;6.95;;;;;;;25.47;46.68;92705.94;1758961;79;21589;-83
2021/08/17 10:39:09;;;;;;;6.35;5.70;;;;;;;25.34;46.66;92732.12;1747844;79;21152;-83
2021/08/17 10:41:37;;;;;;;7.95;6.28;;;;;;;25.23;47.22;92736.30;1756080;79;21566;-82
2021/08/17 10:44:07;;;;;;;8.98;6.30;;;;;;;25.13;48.05;92746.30;1750607;79;21110;-85
2021/08/17 10:46:53;;;;;;;7.75;6.20;;;;;;;25.05;48.96;92738.91;1716018;79;21502;-85
2021/08/17 10:49:30;;;;;;;9.70;6.80;;;;;;;24.94;49.55;92748.78;1715653;80;21337;-82
2021/08/17 10:52:05;;;;;;;7.55;6.78;;;;;;;24.85;50.17;92751.78;1732568;80;21053;-82
2021/08/17 10:54:34;;;;;;;8.68;7.15;;;;;;;24.78;50.42;92760.62;1739507;80;21049;-84
2021/08/17 10:57:29;;;;;;;7.45;6.75;;;;;;;24.76;50.76;92761.01;1742988;79;21056;-82
2021/08/17 10:59:57;;;;;;;8.35;6.70;;;;;;;24.76;51.07;92769.35;1715666;81;21083;-83
2021/08/17 11:02:26;;;;;;;8.30;6.70;;;;;;;24.74;51.87;92814.31;1720913;79;21074;-84
2021/08/17 11:04:53;;;;;;;8.80;6.60;;;;;;;24.65;50.32;92820.11;1684603;83;22113;-84
2021/08/17 11:07:32;;;;;;;7.25;6.58;;;;;;;24.49;50.58;92818.80;1741064;79;21041;-84
2021/08/17 11:10:02;;;;;;;8.53;6.37;;;;;;;24.35;50.31;92819.70;1725117;80;21115;-85
2021/08/17 11:12:32;;;;;;;8.25;7.45;;;;;;;24.13;50.16;92837.77;1714875;80;21258;-83
2021/08/17 11:14:59;;;;;;;8.63;6.17;;;;;;;23.98;50.64;92838.56;1743895;79;21131;-83
2021/08/17 11:17:30;;;;;;;7.67;6.55;;;;;;;23.83;50.40;92834.56;1740733;80;21073;-83
2021/08/17 11:19:56;;;;;;;10.15;6.65;;;;;;;23.71;50.85;92834.35;1731537;80;21431;-84
2021/08/17 11:22:30;;;;;;;8.53;6.22;;;;;;;23.61;51.06;92824.66;1739149;80;21081;-83
2021/08/17 11:24:58;;;;;;;7.95;6.05;;;;;;;23.55;51.38;92821.84;1734881;80;21067;-85
2021/08/17 11:27:43;;;;;;;8.68;6.40;;;;;;;23.48;51.63;92827.84;1728246;80;22197;-83
2021/08/17 11:30:15;;;;;;;7.30;6.03;;;;;;;23.36;51.04;92824.22;1737922;80;21567;-86
2021/08/17 11:32:56;;;;;;;10.30;7.20;;;;;;;23.20;51.75;92830.36;1737615;80;21100;-86